Crawfordsville, AR (72327)

2:27 PM CST on December 04, 2016 (GMT -0600)
West Memphis Municipal | | Change Station

Elev 213 ft 35.14 °N, 90.23 °W | Updated 34 minutes ago

Overcast
Overcast
45 °F
Feels Like 42 °F
N
6
Wind Variable Wind from NW

Today
High -- | Low -- °F
--% Chance of Precip.
Yesterday
High -- | Low -- °F
Precip. -- in
Pressure 30.00 in
Visibility 7.0 miles
Clouds Overcast 500 ft
Windchill 42 °F
Dew Point 44 °F
Humidity 97%
Rainfall 0.09 in
Snow Depth Not available.
6:54 AM 4:48 PM
Waxing Crescent, 25% visible
METAR KAWM 041953Z AUTO 31005KT 7SM OVC005 07/07 A3000 RMK AO2 SLP158 T00720067
Pressure 30.00 in
Visibility 7.0 miles
Clouds Overcast 500 ft
Windchill 42 °F
Dew Point 44 °F
Humidity 97%
Rainfall 0.09 in
Snow Depth Not available.
6:54 AM 4:48 PM
Waxing Crescent, 25% visible
METAR KAWM 041953Z AUTO 31005KT 7SM OVC005 07/07 A3000 RMK AO2 SLP158 T00720067

10-Day Weather Forecast

Almanac

Astronomy

Dec. 04, 2016 Rise Set
Actual Time
Civil Twilight
Nautical Twilight
Astronomical Twilight
Moon
Length of Visible Light
Length of Day
Tomorrow will be .
, % of the Moon is Illuminated

Today's Extremes

State Highs State Lows

Community

WunderPhotos

Upload Photos

1,955,661 photos uploaded!

WunderBlog® & News

Nearby

Air Quality

  Air Quality AQ Index Pollutant
Not available.

Snow Depth

Station Depth Elevation

Earthquake Activity

City Distance Mag. Time & Date
Minimum magnitude displayed is 2.5.

Coastal Water Temperatures

Place Temperature

Stations

Nearby Weather Stations

Station Location Temp. Windchill Dew Point Humidity Wind Precip. Elev Updated Type
                   

Watches & Warnings

There are currently no watches in effect.